Time;durP1;ratioP1;P1;durP2;ratioP2;P2;SDS_P1;SDS_P2;PMS_P1;PMS_P2;Temp;Humidity;BMP_temperature;BMP_pressure;BME280_temperature;BME280_humidity;BME280_pressure;Samples;Min_cycle;Max_cycle;Signal;HPM_P1;HPM_P2
2021/08/04 00:01:38;;;;;;;0.50;0.50;;;24.10;49.40;;;;;;5134489;28;20535;-52
2021/08/04 00:04:04;;;;;;;0.45;0.43;;;24.10;49.50;;;;;;5134451;28;20070;-53
2021/08/04 00:06:29;;;;;;;0.40;0.40;;;24.10;49.50;;;;;;5134360;28;20096;-54
2021/08/04 00:08:57;;;;;;;0.43;0.43;;;24.10;49.50;;;;;;5134324;28;20057;-55
2021/08/04 00:11:23;;;;;;;0.55;0.40;;;24.10;49.50;;;;;;5133656;27;20051;-53
2021/08/04 00:13:48;;;;;;;0.63;0.57;;;24.10;49.50;;;;;;5134685;28;20070;-48
2021/08/04 00:16:14;;;;;;;0.40;0.40;;;24.10;49.50;;;;;;5134296;28;20134;-52
2021/08/04 00:18:39;;;;;;;1.02;0.50;;;24.10;49.50;;;;;;5134077;28;20079;-54
2021/08/04 00:21:05;;;;;;;0.40;0.40;;;24.10;49.60;;;;;;5134162;28;20096;-49
2021/08/04 00:23:31;;;;;;;0.40;0.40;;;24.10;49.60;;;;;;5134235;28;20055;-52
2021/08/04 00:25:57;;;;;;;0.63;0.50;;;24.10;49.60;;;;;;5114060;28;20058;-52
2021/08/04 00:28:22;;;;;;;0.63;0.50;;;24.10;49.60;;;;;;5134172;28;20483;-53
2021/08/04 00:30:48;;;;;;;0.40;0.40;;;24.10;49.60;;;;;;5115581;28;20103;-50
2021/08/04 00:33:14;;;;;;;0.47;0.45;;;24.10;49.60;;;;;;5134071;28;20058;-53
2021/08/04 00:35:39;;;;;;;0.98;0.60;;;24.00;49.60;;;;;;5115507;28;20055;-50
2021/08/04 00:38:10;;;;;;;0.40;0.40;;;24.00;49.60;;;;;;5134099;28;20180;-48
2021/08/04 00:40:36;;;;;;;1.48;0.77;;;24.00;49.60;;;;;;5134333;28;20562;-52
2021/08/04 00:43:02;;;;;;;0.32;0.32;;;24.00;49.60;;;;;;5116025;28;20054;-49
2021/08/04 00:45:28;;;;;;;0.40;0.40;;;24.00;49.60;;;;;;5115763;28;20059;-51
2021/08/04 00:47:55;;;;;;;0.43;0.40;;;24.00;49.70;;;;;;5115622;28;20058;-50
2021/08/04 00:50:21;;;;;;;0.60;0.60;;;24.10;49.70;;;;;;5115135;28;20088;-51
2021/08/04 00:52:48;;;;;;;0.40;0.40;;;24.00;49.70;;;;;;5115343;28;20138;-53
2021/08/04 00:55:15;;;;;;;0.85;0.50;;;24.00;49.70;;;;;;5115661;28;20057;-50
2021/08/04 00:57:41;;;;;;;0.40;0.40;;;24.00;49.70;;;;;;5115105;28;20053;-51
2021/08/04 01:00:07;;;;;;;0.45;0.40;;;24.00;49.70;;;;;;5133733;28;20487;-50
2021/08/04 01:02:59;;;;;;;0.47;0.47;;;24.00;49.70;;;;;;5113888;28;20087;-51
2021/08/04 01:05:33;;;;;;;0.50;0.50;;;24.00;49.70;;;;;;5115715;28;20100;-53
2021/08/04 01:08:11;;;;;;;0.57;0.50;;;24.00;49.80;;;;;;5134089;28;20135;-51
2021/08/04 01:10:47;;;;;;;0.40;0.40;;;24.00;49.80;;;;;;5133581;28;20074;-50
2021/08/04 01:13:26;;;;;;;0.55;0.50;;;24.00;49.80;;;;;;5130456;28;20121;-53
2021/08/04 01:16:21;;;;;;;0.40;0.40;;;24.00;49.80;;;;;;5133480;28;20058;-50
2021/08/04 01:19:06;;;;;;;0.40;0.40;;;24.00;49.80;;;;;;5112701;28;20052;-54
2021/08/04 01:21:39;;;;;;;1.08;0.82;;;24.00;49.80;;;;;;5113224;28;20103;-51
2021/08/04 01:24:25;;;;;;;0.82;0.60;;;24.00;49.80;;;;;;5117006;28;20047;-49
2021/08/04 01:26:51;;;;;;;0.40;0.40;;;23.90;49.80;;;;;;5137156;28;20138;-48
2021/08/04 01:29:22;;;;;;;2.10;0.40;;;23.90;49.80;;;;;;5137018;28;20134;-49
2021/08/04 01:31:50;;;;;;;0.45;0.45;;;23.90;49.80;;;;;;5137031;28;20114;-51
2021/08/04 01:34:19;;;;;;;0.40;0.40;;;23.90;49.90;;;;;;5137214;28;20471;-51
2021/08/04 01:36:45;;;;;;;0.60;0.60;;;23.90;49.90;;;;;;5117851;28;20376;-46
2021/08/04 01:39:13;;;;;;;0.57;0.45;;;23.90;49.90;;;;;;5117141;28;20063;-54
2021/08/04 01:41:41;;;;;;;0.70;0.57;;;23.90;49.90;;;;;;5137217;28;20043;-54
2021/08/04 01:44:08;;;;;;;0.50;0.50;;;23.90;49.90;;;;;;5116299;28;20079;-52
2021/08/04 01:46:34;;;;;;;0.40;0.40;;;23.90;49.90;;;;;;5117552;28;20051;-49
2021/08/04 01:49:02;;;;;;;0.43;0.38;;;23.90;49.90;;;;;;5136537;28;20051;-51
2021/08/04 01:51:28;;;;;;;1.15;0.57;;;23.90;49.90;;;;;;5136504;28;20055;-51
2021/08/04 01:53:56;;;;;;;0.50;0.50;;;23.90;49.90;;;;;;5116014;28;20056;-55
2021/08/04 01:56:23;;;;;;;0.40;0.40;;;23.90;49.90;;;;;;5117663;28;20062;-54
2021/08/04 01:58:49;;;;;;;0.35;0.35;;;23.80;49.90;;;;;;5117312;28;20047;-51
2021/08/04 02:01:14;;;;;;;0.50;0.50;;;23.80;49.90;;;;;;5118691;28;20057;-50
2021/08/04 02:03:41;;;;;;;0.40;0.40;;;23.90;50.00;;;;;;5118165;28;20111;-54
2021/08/04 02:06:21;;;;;;;0.55;0.55;;;23.90;50.00;;;;;;5117387;28;20055;-55
2021/08/04 02:08:58;;;;;;;0.40;0.40;;;23.80;49.90;;;;;;5117023;28;20048;-53
2021/08/04 02:11:29;;;;;;;0.50;0.50;;;23.80;50.00;;;;;;5136388;28;20075;-51
2021/08/04 02:14:22;;;;;;;0.88;0.40;;;23.80;50.00;;;;;;5136406;28;20047;-54
2021/08/04 02:17:00;;;;;;;0.35;0.35;;;23.80;50.00;;;;;;5085317;28;20047;-55
2021/08/04 02:19:36;;;;;;;1.45;0.75;;;23.80;50.00;;;;;;5136718;28;20482;-50
2021/08/04 02:22:07;;;;;;;0.80;0.40;;;23.80;50.00;;;;;;5136265;28;20153;-50
2021/08/04 02:24:38;;;;;;;0.43;0.40;;;23.80;50.00;;;;;;5117732;28;20051;-50
2021/08/04 02:27:04;;;;;;;0.85;0.40;;;23.80;50.10;;;;;;5117768;28;20130;-53
2021/08/04 02:29:36;;;;;;;0.45;0.45;;;23.80;50.10;;;;;;5115871;28;20134;-55
2021/08/04 02:32:03;;;;;;;0.43;0.43;;;23.80;50.10;;;;;;5117578;28;20490;-55
2021/08/04 02:34:29;;;;;;;0.95;0.50;;;23.80;50.10;;;;;;5135369;27;20131;-49
2021/08/04 02:36:55;;;;;;;0.65;0.50;;;23.80;50.10;;;;;;5117371;28;20051;-54
2021/08/04 02:39:21;;;;;;;0.40;0.40;;;23.80;50.10;;;;;;5135838;28;20055;-54
2021/08/04 02:41:48;;;;;;;0.68;0.43;;;23.80;50.10;;;;;;5135921;28;20538;-54
2021/08/04 02:44:15;;;;;;;0.50;0.40;;;23.80;50.20;;;;;;5136037;28;20082;-53
2021/08/04 02:46:54;;;;;;;0.55;0.40;;;23.80;50.10;;;;;;5116828;28;20134;-52
2021/08/04 02:49:20;;;;;;;0.40;0.40;;;23.70;50.10;;;;;;5115904;28;20055;-48
2021/08/04 02:51:47;;;;;;;0.60;0.40;;;23.80;50.20;;;;;;5115226;28;20058;-48
2021/08/04 02:54:17;;;;;;;0.45;0.35;;;23.70;50.10;;;;;;5116619;28;20910;-49
2021/08/04 02:56:43;;;;;;;0.40;0.40;;;23.80;50.20;;;;;;5135783;28;20053;-54
2021/08/04 02:59:09;;;;;;;0.40;0.40;;;23.70;50.10;;;;;;5135528;28;20395;-51
2021/08/04 03:01:34;;;;;;;0.40;0.40;;;23.70;50.20;;;;;;5135797;28;20062;-52
2021/08/04 03:04:00;;;;;;;1.55;0.40;;;23.70;50.20;;;;;;5135456;28;20379;-49
2021/08/04 03:06:26;;;;;;;0.40;0.40;;;23.70;50.20;;;;;;5116085;28;20068;-51
2021/08/04 03:08:51;;;;;;;0.45;0.45;;;23.70;50.20;;;;;;5135597;28;20051;-50
2021/08/04 03:11:17;;;;;;;0.50;0.40;;;23.70;50.20;;;;;;5135450;28;20047;-52
2021/08/04 03:13:43;;;;;;;1.05;0.60;;;23.70;50.30;;;;;;5116925;28;20054;-53
2021/08/04 03:16:08;;;;;;;0.43;0.32;;;23.70;50.20;;;;;;5116599;28;20509;-50
2021/08/04 03:18:34;;;;;;;0.52;0.43;;;23.70;50.30;;;;;;5135793;28;20063;-51
2021/08/04 03:21:00;;;;;;;1.65;0.50;;;23.70;50.30;;;;;;5135208;28;20376;-50
2021/08/04 03:23:25;;;;;;;0.40;0.40;;;23.70;50.30;;;;;;5135228;28;20499;-52
2021/08/04 03:25:51;;;;;;;0.50;0.50;;;23.70;50.30;;;;;;5135480;28;20046;-53
2021/08/04 03:28:18;;;;;;;0.47;0.47;;;23.60;50.30;;;;;;5115694;28;20168;-54
2021/08/04 03:30:43;;;;;;;0.40;0.40;;;23.70;50.40;;;;;;5135165;28;20055;-51
2021/08/04 03:33:09;;;;;;;0.45;0.45;;;23.60;50.30;;;;;;5135650;28;20547;-50
2021/08/04 03:35:35;;;;;;;0.73;0.40;;;23.60;50.40;;;;;;5135258;28;20090;-49
2021/08/04 03:38:00;;;;;;;0.50;0.40;;;23.60;50.40;;;;;;5134993;28;20050;-48
2021/08/04 03:40:26;;;;;;;0.50;0.50;;;23.60;50.30;;;;;;5116323;28;20060;-52
2021/08/04 03:42:51;;;;;;;0.63;0.50;;;23.60;50.40;;;;;;5134855;28;20517;-53
2021/08/04 03:45:17;;;;;;;0.55;0.50;;;23.60;50.40;;;;;;5134517;27;20043;-51
2021/08/04 03:47:42;;;;;;;0.40;0.40;;;23.60;50.40;;;;;;5134286;28;20514;-52
2021/08/04 03:50:09;;;;;;;0.45;0.40;;;23.60;50.40;;;;;;5134728;28;20435;-48
2021/08/04 03:52:34;;;;;;;0.40;0.40;;;23.60;50.40;;;;;;5135042;28;20051;-50
2021/08/04 03:55:00;;;;;;;0.60;0.50;;;23.60;50.40;;;;;;5135030;28;20149;-46
2021/08/04 03:57:26;;;;;;;0.40;0.40;;;23.60;50.40;;;;;;5116202;28;20051;-48
2021/08/04 03:59:51;;;;;;;0.90;0.38;;;23.60;50.40;;;;;;5134473;28;20070;-48
2021/08/04 04:02:17;;;;;;;0.50;0.43;;;23.60;50.40;;;;;;5134559;28;20047;-47
2021/08/04 04:04:43;;;;;;;0.40;0.40;;;23.60;50.40;;;;;;5134518;28;20090;-46
2021/08/04 04:07:08;;;;;;;0.45;0.45;;;23.60;50.40;;;;;;5116638;28;20087;-49
2021/08/04 04:09:36;;;;;;;0.45;0.45;;;23.60;50.40;;;;;;5134182;28;20458;-51
2021/08/04 04:12:02;;;;;;;0.38;0.38;;;23.60;50.40;;;;;;5114363;28;20052;-48
2021/08/04 04:14:29;;;;;;;0.40;0.40;;;23.60;50.40;;;;;;5134698;28;20059;-51
2021/08/04 04:16:56;;;;;;;0.50;0.50;;;23.60;50.40;;;;;;5134248;28;20054;-48
2021/08/04 04:19:23;;;;;;;1.17;0.60;;;23.60;50.40;;;;;;5134192;28;20055;-49
2021/08/04 04:21:49;;;;;;;0.50;0.40;;;23.60;50.40;;;;;;5134376;28;20054;-53
2021/08/04 04:24:14;;;;;;;0.40;0.40;;;23.60;50.40;;;;;;5134175;28;20043;-48
2021/08/04 04:26:40;;;;;;;0.73;0.35;;;23.60;50.40;;;;;;5114629;28;20051;-47
2021/08/04 04:29:06;;;;;;;0.55;0.55;;;23.60;50.40;;;;;;5133826;28;20169;-48
2021/08/04 04:31:31;;;;;;;0.68;0.57;;;23.60;50.40;;;;;;5133747;28;20112;-46
2021/08/04 04:33:57;;;;;;;0.65;0.50;;;23.60;50.40;;;;;;5134321;28;20079;-52
2021/08/04 04:36:22;;;;;;;1.20;0.50;;;23.60;50.40;;;;;;5134250;28;20133;-52
2021/08/04 04:38:48;;;;;;;0.50;0.50;;;23.60;50.40;;;;;;5134095;28;20079;-49
2021/08/04 04:41:14;;;;;;;0.82;0.60;;;23.60;50.40;;;;;;5134410;28;20518;-48
2021/08/04 04:43:41;;;;;;;0.47;0.47;;;23.60;50.40;;;;;;5133933;28;20392;-47
2021/08/04 04:46:08;;;;;;;0.55;0.43;;;23.60;50.50;;;;;;5133769;28;20062;-49
2021/08/04 04:48:33;;;;;;;0.43;0.43;;;23.60;50.50;;;;;;5133892;28;20138;-50
2021/08/04 04:50:59;;;;;;;0.57;0.52;;;23.60;50.50;;;;;;5134153;28;20134;-50
2021/08/04 04:53:24;;;;;;;0.73;0.63;;;23.60;50.50;;;;;;5133704;28;20086;-48
2021/08/04 04:55:50;;;;;;;0.30;0.30;;;23.60;50.50;;;;;;5133683;28;20039;-47
2021/08/04 04:58:15;;;;;;;0.52;0.50;;;23.60;50.50;;;;;;5133459;27;20395;-49
2021/08/04 05:00:41;;;;;;;0.60;0.60;;;23.60;50.50;;;;;;5133614;28;20047;-49
2021/08/04 05:03:06;;;;;;;1.02;0.60;;;23.60;50.50;;;;;;5133721;28;20078;-54
2021/08/04 05:05:32;;;;;;;0.50;0.40;;;23.60;50.50;;;;;;5133624;28;20074;-49
2021/08/04 05:07:57;;;;;;;0.40;0.40;;;23.60;50.50;;;;;;5133898;28;20062;-50
2021/08/04 05:10:23;;;;;;;0.73;0.60;;;23.60;50.50;;;;;;5133636;28;20063;-48
2021/08/04 05:12:48;;;;;;;0.60;0.40;;;23.60;50.50;;;;;;5133592;28;20051;-47
2021/08/04 05:15:14;;;;;;;0.80;0.50;;;23.60;50.50;;;;;;5133544;28;20055;-47
2021/08/04 05:17:40;;;;;;;0.40;0.40;;;23.60;50.50;;;;;;5133868;28;20383;-50
2021/08/04 05:20:06;;;;;;;0.93;0.40;;;23.50;50.50;;;;;;5133077;28;20134;-52
2021/08/04 05:22:32;;;;;;;0.70;0.40;;;23.60;50.50;;;;;;5133496;28;20055;-48
2021/08/04 05:24:57;;;;;;;0.50;0.50;;;23.60;50.50;;;;;;5133598;28;20475;-52
2021/08/04 05:27:23;;;;;;;0.65;0.50;;;23.60;50.50;;;;;;5133333;28;20487;-49
2021/08/04 05:29:48;;;;;;;0.60;0.50;;;23.60;50.50;;;;;;5133867;28;20058;-53
2021/08/04 05:32:14;;;;;;;0.40;0.40;;;23.60;50.40;;;;;;5133186;28;20061;-50
2021/08/04 05:34:39;;;;;;;0.40;0.40;;;23.60;50.50;;;;;;5133583;28;20063;-53
2021/08/04 05:37:05;;;;;;;0.40;0.40;;;23.60;50.40;;;;;;5114785;28;20039;-52
2021/08/04 05:39:32;;;;;;;0.40;0.40;;;23.60;50.40;;;;;;5133657;28;20051;-50
2021/08/04 05:41:59;;;;;;;0.40;0.40;;;23.60;50.40;;;;;;5133628;28;20134;-49
2021/08/04 05:44:25;;;;;;;0.30;0.30;;;23.60;50.40;;;;;;5133210;28;20051;-50
2021/08/04 05:46:50;;;;;;;0.98;0.50;;;23.60;50.40;;;;;;5133750;28;20127;-52
2021/08/04 05:49:16;;;;;;;0.47;0.40;;;23.60;50.40;;;;;;5132712;28;20055;-52
2021/08/04 05:51:41;;;;;;;0.65;0.50;;;23.60;50.30;;;;;;5132963;28;20078;-52
2021/08/04 05:54:07;;;;;;;0.40;0.40;;;23.60;50.30;;;;;;5132747;28;20059;-48
2021/08/04 05:56:32;;;;;;;0.85;0.40;;;23.60;50.30;;;;;;5132438;28;20051;-48
2021/08/04 05:58:58;;;;;;;0.45;0.40;;;23.60;50.30;;;;;;5133181;28;20055;-55
2021/08/04 06:01:24;;;;;;;1.25;0.45;;;23.60;50.20;;;;;;5132703;28;20043;-51
2021/08/04 06:03:49;;;;;;;1.58;0.52;;;23.70;50.30;;;;;;5133155;28;20058;-51
2021/08/04 06:06:15;;;;;;;0.45;0.45;;;23.60;50.20;;;;;;5132961;28;20077;-52
2021/08/04 06:08:40;;;;;;;0.40;0.40;;;23.70;50.20;;;;;;5132649;27;20054;-53
2021/08/04 06:11:06;;;;;;;0.40;0.40;;;23.60;50.20;;;;;;5136457;28;20057;-50
2021/08/04 06:13:31;;;;;;;0.60;0.50;;;23.70;50.20;;;;;;5136414;28;20047;-50
2021/08/04 06:15:57;;;;;;;0.40;0.40;;;23.70;50.20;;;;;;5136263;28;20100;-52
2021/08/04 06:18:23;;;;;;;0.40;0.40;;;23.70;50.20;;;;;;5136135;28;20061;-53
2021/08/04 06:20:48;;;;;;;2.85;0.45;;;23.70;50.20;;;;;;5136540;28;20440;-53
2021/08/04 06:23:14;;;;;;;0.40;0.40;;;23.70;50.20;;;;;;5136472;28;20083;-50
2021/08/04 06:25:40;;;;;;;0.75;0.50;;;23.70;50.10;;;;;;5136441;28;20386;-54
2021/08/04 06:28:05;;;;;;;0.50;0.50;;;23.70;50.10;;;;;;5136136;28;20050;-51
2021/08/04 06:30:31;;;;;;;0.40;0.40;;;23.70;50.20;;;;;;5136142;28;20395;-51
2021/08/04 06:32:56;;;;;;;0.40;0.40;;;23.60;50.10;;;;;;5135972;28;20047;-50
2021/08/04 06:35:22;;;;;;;0.50;0.50;;;23.70;50.20;;;;;;5136531;28;20386;-51
2021/08/04 06:37:48;;;;;;;0.57;0.57;;;23.70;50.10;;;;;;5135942;28;20137;-51
2021/08/04 06:40:13;;;;;;;0.65;0.60;;;23.70;50.10;;;;;;5135796;28;20071;-48
2021/08/04 06:42:40;;;;;;;0.32;0.32;;;23.70;50.20;;;;;;5136043;28;20043;-50
2021/08/04 06:45:06;;;;;;;0.40;0.40;;;23.70;50.10;;;;;;5136179;28;20142;-51
2021/08/04 06:47:32;;;;;;;0.47;0.45;;;23.70;50.10;;;;;;5135792;28;20119;-51
2021/08/04 06:49:57;;;;;;;0.35;0.35;;;23.70;50.10;;;;;;5135724;28;20130;-50
2021/08/04 06:52:23;;;;;;;0.88;0.50;;;23.70;50.10;;;;;;5136116;28;20059;-54
2021/08/04 06:54:48;;;;;;;0.43;0.43;;;23.70;50.10;;;;;;5117307;28;20107;-50
2021/08/04 06:57:14;;;;;;;0.40;0.40;;;23.70;50.10;;;;;;5135899;28;20092;-46
2021/08/04 06:59:39;;;;;;;0.45;0.30;;;23.70;50.10;;;;;;5135558;28;20047;-50
2021/08/04 07:02:05;;;;;;;0.40;0.40;;;23.70;50.10;;;;;;5135571;28;20051;-52
2021/08/04 07:04:31;;;;;;;0.45;0.45;;;23.70;50.00;;;;;;5135475;28;20047;-51
2021/08/04 07:06:59;;;;;;;0.50;0.50;;;23.70;50.00;;;;;;5135652;28;20421;-52
2021/08/04 07:09:27;;;;;;;0.75;0.60;;;23.70;50.00;;;;;;5135669;28;20051;-51
2021/08/04 07:11:53;;;;;;;0.50;0.50;;;23.70;50.00;;;;;;5135514;28;20047;-48
2021/08/04 07:14:19;;;;;;;0.43;0.40;;;23.80;50.00;;;;;;5135389;28;20521;-54
2021/08/04 07:16:48;;;;;;;0.40;0.40;;;23.70;49.90;;;;;;5135407;28;20066;-50
2021/08/04 07:19:15;;;;;;;0.52;0.47;;;23.80;49.90;;;;;;5134840;28;20043;-50
2021/08/04 07:21:41;;;;;;;0.43;0.43;;;23.80;49.90;;;;;;5134742;27;20051;-50
2021/08/04 07:24:08;;;;;;;0.43;0.43;;;23.80;49.90;;;;;;5134813;28;20099;-48
2021/08/04 07:26:38;;;;;;;0.47;0.47;;;23.80;49.80;;;;;;5134846;28;20055;-46
2021/08/04 07:29:04;;;;;;;0.65;0.65;;;23.80;49.80;;;;;;5134979;28;20054;-48
2021/08/04 07:31:31;;;;;;;0.50;0.50;;;23.80;49.80;;;;;;5134719;28;20183;-48
2021/08/04 07:33:56;;;;;;;0.50;0.50;;;23.80;49.80;;;;;;5134910;28;20107;-47
2021/08/04 07:36:22;;;;;;;0.40;0.40;;;23.80;49.80;;;;;;5115291;28;20486;-49
2021/08/04 07:38:48;;;;;;;0.40;0.40;;;23.80;49.70;;;;;;5135060;28;20074;-51
2021/08/04 07:41:13;;;;;;;1.00;0.60;;;23.80;49.70;;;;;;5134833;28;20501;-51
2021/08/04 07:43:39;;;;;;;0.40;0.40;;;23.80;49.80;;;;;;5134827;28;20054;-47
2021/08/04 07:46:05;;;;;;;0.40;0.40;;;23.80;49.80;;;;;;5135228;28;20039;-50
2021/08/04 07:48:32;;;;;;;0.40;0.40;;;23.80;49.80;;;;;;5134796;28;20130;-48
2021/08/04 07:51:00;;;;;;;0.93;0.60;;;23.80;49.80;;;;;;5135174;28;20055;-52
2021/08/04 07:53:27;;;;;;;0.43;0.40;;;23.80;50.40;;;;;;5134554;28;20047;-50
2021/08/04 07:55:52;;;;;;;1.65;0.50;;;23.80;49.80;;;;;;5134629;28;20100;-53
2021/08/04 07:58:18;;;;;;;0.50;0.50;;;23.80;49.90;;;;;;5134538;28;20055;-50
2021/08/04 08:00:43;;;;;;;0.40;0.40;;;23.80;49.90;;;;;;5134462;28;20062;-49
2021/08/04 08:03:09;;;;;;;0.50;0.50;;;23.80;49.90;;;;;;5116075;28;20055;-54
2021/08/04 08:05:34;;;;;;;0.50;0.50;;;23.80;49.90;;;;;;5134339;28;20050;-52
2021/08/04 08:08:03;;;;;;;0.52;0.52;;;23.80;49.90;;;;;;5134557;28;20142;-54
2021/08/04 08:10:29;;;;;;;0.55;0.55;;;23.70;49.80;;;;;;5134326;28;20531;-50
2021/08/04 08:12:55;;;;;;;0.60;0.40;;;23.70;49.80;;;;;;5134525;28;20185;-52
2021/08/04 08:15:21;;;;;;;0.50;0.50;;;23.80;49.90;;;;;;5115870;28;20075;-52
2021/08/04 08:17:47;;;;;;;0.63;0.50;;;23.80;49.90;;;;;;5134155;28;20058;-47
2021/08/04 08:20:13;;;;;;;0.47;0.47;;;23.70;49.90;;;;;;5134189;28;20050;-55
2021/08/04 08:22:39;;;;;;;1.67;0.70;;;23.80;49.90;;;;;;5134330;28;20509;-55
2021/08/04 08:25:06;;;;;;;0.40;0.40;;;23.70;49.90;;;;;;5134069;28;20043;-50
2021/08/04 08:27:32;;;;;;;0.40;0.40;;;23.70;49.90;;;;;;5134410;28;20436;-54
2021/08/04 08:29:57;;;;;;;0.65;0.47;;;23.70;49.90;;;;;;5133935;28;20141;-52
2021/08/04 08:32:26;;;;;;;0.63;0.50;;;23.70;49.90;;;;;;5133307;27;20411;-54
2021/08/04 08:34:52;;;;;;;0.40;0.40;;;23.70;49.90;;;;;;5115997;28;20053;-46
2021/08/04 08:37:18;;;;;;;1.23;0.52;;;23.70;49.90;;;;;;5134259;28;20196;-51
2021/08/04 08:39:44;;;;;;;0.70;0.52;;;23.70;50.00;;;;;;5133951;28;20083;-50
2021/08/04 08:42:09;;;;;;;0.68;0.65;;;23.70;49.90;;;;;;5134478;28;20062;-52
2021/08/04 08:44:35;;;;;;;2.15;0.70;;;23.70;49.90;;;;;;5133930;28;20111;-52
2021/08/04 08:47:08;;;;;;;0.73;0.60;;;23.70;49.90;;;;;;5133771;28;20078;-54
2021/08/04 08:49:34;;;;;;;1.30;0.60;;;23.70;49.90;;;;;;5133615;28;20055;-50
2021/08/04 08:51:59;;;;;;;1.23;0.55;;;23.80;50.00;;;;;;5133835;28;20142;-53
2021/08/04 08:54:27;;;;;;;1.05;0.80;;;23.80;50.00;;;;;;5133801;28;20043;-51
2021/08/04 08:56:54;;;;;;;1.30;0.65;;;23.80;49.90;;;;;;5133397;28;20047;-53
2021/08/04 08:59:19;;;;;;;1.77;0.70;;;23.80;49.90;;;;;;5115473;28;20054;-50
2021/08/04 09:01:46;;;;;;;0.70;0.70;;;23.80;49.90;;;;;;5133534;28;20078;-50
2021/08/04 09:04:16;;;;;;;0.70;0.70;;;23.80;49.90;;;;;;5134009;28;20487;-52
2021/08/04 09:06:46;;;;;;;3.40;0.75;;;23.80;49.90;;;;;;5114760;28;20059;-52
2021/08/04 09:09:24;;;;;;;1.17;0.55;;;23.80;49.80;;;;;;5133609;28;20109;-52
2021/08/04 09:12:00;;;;;;;1.40;0.60;;;23.80;49.90;;;;;;5133938;28;20082;-50
2021/08/04 09:14:29;;;;;;;1.65;0.70;;;23.80;49.80;;;;;;5133734;28;20047;-50
2021/08/04 09:17:05;;;;;;;0.40;0.40;;;23.80;49.80;;;;;;5133328;28;20067;-51
2021/08/04 09:19:38;;;;;;;2.33;0.80;;;23.80;49.80;;;;;;5130076;28;20078;-49
2021/08/04 09:22:10;;;;;;;0.82;0.60;;;23.80;49.70;;;;;;5133723;28;20047;-48
2021/08/04 09:24:52;;;;;;;0.40;0.40;;;23.80;49.70;;;;;;5134059;28;20055;-55
2021/08/04 09:27:18;;;;;;;2.03;0.70;;;23.80;49.70;;;;;;5133200;28;20448;-52
2021/08/04 09:29:59;;;;;;;0.70;0.65;;;23.80;49.60;;;;;;5133310;28;20051;-52
2021/08/04 09:32:31;;;;;;;0.68;0.50;;;23.90;49.60;;;;;;5133664;28;20093;-55
2021/08/04 09:35:05;;;;;;;1.27;0.57;;;23.90;49.60;;;;;;5133226;28;20047;-52
2021/08/04 09:37:30;;;;;;;1.15;0.70;;;23.90;49.60;;;;;;5133388;28;20039;-54
2021/08/04 09:40:00;;;;;;;1.08;0.90;;;23.90;49.50;;;;;;5133398;28;20493;-53
2021/08/04 09:43:04;;;;;;;2.05;0.93;;;23.90;49.50;;;;;;5133409;28;20046;-51
2021/08/04 09:45:42;;;;;;;1.25;0.60;;;24.00;49.40;;;;;;5051948;28;20057;-53
2021/08/04 09:48:11;;;;;;;2.33;0.77;;;24.00;49.40;;;;;;5053214;28;20143;-50
2021/08/04 09:50:48;;;;;;;1.95;0.90;;;24.00;49.30;;;;;;5099403;28;20440;-54
2021/08/04 09:53:18;;;;;;;0.82;0.82;;;24.00;49.20;;;;;;5118076;28;20198;-53
2021/08/04 09:56:03;;;;;;;0.93;0.82;;;24.10;49.30;;;;;;5137099;28;20090;-52
2021/08/04 09:58:28;;;;;;;1.50;0.82;;;24.10;49.20;;;;;;5136448;28;20074;-48
2021/08/04 10:00:54;;;;;;;3.22;0.82;;;24.10;49.10;;;;;;5136641;28;20055;-47
2021/08/04 10:03:20;;;;;;;0.88;0.85;;;24.10;49.10;;;;;;5137075;28;20077;-47
2021/08/04 10:05:45;;;;;;;2.42;0.90;;;24.10;49.00;;;;;;5136743;28;20055;-50
2021/08/04 10:08:12;;;;;;;2.10;0.70;;;24.20;49.00;;;;;;5116767;28;20061;-47
2021/08/04 10:10:49;;;;;;;1.88;1.00;;;24.20;49.00;;;;;;5136705;28;20055;-52
2021/08/04 10:13:19;;;;;;;0.88;0.88;;;24.20;48.90;;;;;;5136313;28;20082;-49
2021/08/04 10:15:50;;;;;;;1.45;0.90;;;24.20;48.90;;;;;;5117044;28;20044;-50
2021/08/04 10:18:20;;;;;;;0.90;0.80;;;24.20;48.80;;;;;;5136677;28;20059;-46
2021/08/04 10:20:49;;;;;;;4.47;1.25;;;24.20;48.70;;;;;;5117806;28;20059;-48
2021/08/04 10:23:18;;;;;;;4.72;1.15;;;24.30;48.80;;;;;;5136184;28;20054;-49
2021/08/04 10:25:44;;;;;;;1.20;0.73;;;24.30;48.70;;;;;;5136405;28;20062;-49
2021/08/04 10:28:11;;;;;;;3.90;1.10;;;24.30;48.60;;;;;;5136032;28;20513;-50
2021/08/04 10:30:37;;;;;;;2.50;0.85;;;24.40;48.60;;;;;;5136081;28;20051;-52
2021/08/04 10:33:04;;;;;;;1.13;0.65;;;24.40;48.50;;;;;;5136093;28;20502;-50
2021/08/04 10:35:30;;;;;;;1.67;0.90;;;24.40;48.50;;;;;;5135971;28;20047;-52
2021/08/04 10:37:56;;;;;;;3.15;0.93;;;24.40;48.40;;;;;;5117457;28;20047;-52
2021/08/04 10:40:26;;;;;;;1.35;0.88;;;24.40;48.40;;;;;;5135850;28;20051;-50
2021/08/04 10:42:53;;;;;;;0.88;0.70;;;24.40;48.40;;;;;;5135876;28;20108;-50
2021/08/04 10:45:24;;;;;;;1.27;1.10;;;24.50;48.40;;;;;;5135737;28;20059;-49
2021/08/04 10:47:50;;;;;;;;;;;24.50;48.30;;;;;;5136459;28;20362;-50
2021/08/04 10:50:15;;;;;;;2.70;0.85;;;24.50;48.30;;;;;;5135953;28;19919;-51
2021/08/04 10:52:56;;;;;;;1.33;0.80;;;24.50;48.30;;;;;;5135744;28;20100;-48
2021/08/04 10:55:22;;;;;;;1.10;1.00;;;24.50;48.20;;;;;;5135277;27;20085;-51
2021/08/04 10:58:07;;;;;;;1.70;0.82;;;24.50;48.20;;;;;;5135684;28;20082;-49
2021/08/04 11:00:34;;;;;;;1.20;0.90;;;24.50;48.20;;;;;;5135959;28;20043;-49
2021/08/04 11:03:00;;;;;;;3.25;0.90;;;24.50;48.20;;;;;;5135653;28;20047;-50
2021/08/04 11:06:03;;;;;;;0.70;0.70;;;24.50;48.20;;;;;;5135492;28;20410;-51
2021/08/04 11:08:28;;;;;;;1.48;1.08;;;24.50;48.10;;;;;;5135534;28;20455;-51
2021/08/04 11:10:54;;;;;;;2.65;1.13;;;24.50;48.10;;;;;;5135341;28;20074;-51
2021/08/04 11:13:52;;;;;;;4.22;1.27;;;24.50;48.10;;;;;;5135350;28;20055;-52
2021/08/04 11:16:32;;;;;;;1.38;0.77;;;24.50;48.10;;;;;;5135328;28;20059;-50
2021/08/04 11:19:01;;;;;;;2.53;1.05;;;24.60;48.10;;;;;;5135355;28;20043;-51
2021/08/04 11:21:26;;;;;;;2.72;0.93;;;24.60;48.00;;;;;;5135159;28;20051;-52
2021/08/04 11:23:52;;;;;;;1.70;0.80;;;24.60;48.00;;;;;;5116451;28;20131;-53
2021/08/04 11:26:30;;;;;;;2.05;1.00;;;24.70;48.00;;;;;;5135813;28;20142;-53
2021/08/04 11:28:57;;;;;;;2.42;0.90;;;24.70;47.90;;;;;;5135442;28;20130;-50
2021/08/04 11:31:23;;;;;;;4.18;1.00;;;24.70;47.80;;;;;;5135170;28;20051;-49
2021/08/04 11:33:49;;;;;;;4.28;0.90;;;24.70;47.80;;;;;;5134981;28;20072;-51
2021/08/04 11:36:31;;;;;;;2.25;1.10;;;24.70;47.80;;;;;;5134960;28;20043;-51
2021/08/04 11:39:04;;;;;;;1.33;1.02;;;24.70;47.70;;;;;;5134981;28;20051;-53
2021/08/04 11:41:37;;;;;;;4.13;0.90;;;24.70;47.70;;;;;;5134741;28;20047;-54
2021/08/04 11:44:24;;;;;;;1.55;0.98;;;24.80;47.70;;;;;;5135292;28;20055;-51
2021/08/04 11:46:55;;;;;;;5.07;1.02;;;24.80;47.70;;;;;;5135024;28;20487;-49
2021/08/04 11:49:38;;;;;;;1.75;0.90;;;24.80;47.60;;;;;;5134946;28;20043;-53
2021/08/04 11:52:11;;;;;;;1.40;1.00;;;24.80;47.60;;;;;;5134851;28;20066;-52
2021/08/04 11:54:46;;;;;;;8.55;1.60;;;24.80;47.60;;;;;;5135125;28;20145;-52
2021/08/04 11:57:25;;;;;;;2.40;1.10;;;24.80;47.50;;;;;;5134658;28;20540;-52
2021/08/04 12:00:15;;;;;;;2.20;1.15;;;24.90;47.50;;;;;;5134975;28;20107;-49
2021/08/04 12:02:41;;;;;;;2.50;1.13;;;24.90;47.40;;;;;;5123523;28;20083;-53
2021/08/04 12:05:08;;;;;;;2.70;1.02;;;24.90;47.40;;;;;;5134772;28;20097;-52
2021/08/04 12:07:36;;;;;;;2.85;1.27;;;24.90;47.30;;;;;;5133268;27;20134;-53
2021/08/04 12:10:10;;;;;;;2.22;0.80;;;24.90;47.30;;;;;;5134487;28;20057;-51
2021/08/04 12:12:44;;;;;;;3.35;1.10;;;24.90;47.20;;;;;;5135153;28;20054;-49
2021/08/04 12:15:23;;;;;;;1.38;1.05;;;25.00;47.20;;;;;;5134708;28;20065;-49
2021/08/04 12:18:03;;;;;;;1.95;1.17;;;25.00;47.20;;;;;;5134018;28;20506;-55
2021/08/04 12:20:32;;;;;;;1.65;1.00;;;25.00;47.10;;;;;;5134581;28;20099;-53
2021/08/04 12:23:06;;;;;;;2.08;0.80;;;25.10;47.10;;;;;;5134319;28;20054;-51
2021/08/04 12:25:35;;;;;;;2.42;1.02;;;25.10;47.50;;;;;;5134500;28;20043;-50
2021/08/04 12:28:02;;;;;;;1.67;1.00;;;25.10;46.90;;;;;;5134228;28;20482;-49
2021/08/04 12:30:41;;;;;;;2.92;1.25;;;25.10;46.90;;;;;;5114653;28;20058;-49
2021/08/04 12:35:45;;;;;;;2.70;0.98;;;25.10;46.90;;;;;;5134510;28;20522;-51
2021/08/04 12:38:17;;;;;;;1.58;1.10;;;25.20;46.90;;;;;;5134176;28;20050;-50
2021/08/04 12:40:49;;;;;;;3.95;0.93;;;25.20;46.80;;;;;;5134070;28;20055;-51
2021/08/04 12:43:15;;;;;;;;;;;25.20;46.80;;;;;;5134359;28;20130;-49
2021/08/04 12:45:46;;;;;;;2.17;0.82;;;25.20;46.80;;;;;;5133989;28;19915;-49
2021/08/04 12:48:13;;;;;;;1.67;1.00;;;25.20;46.80;;;;;;5133870;28;20050;-52
2021/08/04 12:50:51;;;;;;;2.65;1.20;;;25.20;46.80;;;;;;5133871;28;20058;-52
2021/08/04 12:53:31;;;;;;;2.55;1.35;;;25.20;46.80;;;;;;5114731;28;20047;-54
2021/08/04 12:56:05;;;;;;;2.67;1.20;;;25.20;46.80;;;;;;5133815;28;20138;-51
2021/08/04 12:59:00;;;;;;;3.97;1.20;;;25.20;46.70;;;;;;5133793;28;20134;-51